Ardore
| Nome | Ardore |
|---|---|
| Predefinito | Fervor |
| Tipo | Incantesimo |
| Descrizione | Le creature che controlli hanno rapidità. (Possono attaccare e |
| Gusto | "Non ce ne staremo seduti come pigre lumache goblin in attesa che la morte ci piombi addosso. Porteremo la morte, affilata e lucente, ai nostri nemici." —Krenko, capocosca |
| Artista | Viacom |
| Espansione | Avatar: The Last Airbender Eternal #29 |
| Carta da parati | |
| Immagine |
Di Ardore
Ardore, Incantesimo, progettato da Franz Vohwinkel rilasciato per la prima volta giugno 1997 in redazione Weatherlight ed è stato stampato esattamente in 6 forme diverse. Attualmente viene venduto al prezzo più basso di € 4,30. È una chiave magnetica 7 combo.
Fervor è un ottimo aggiunta ai mazzi rossi aggressivi in Magic: the Gathering, poiché fornisce a tutte le tue creature la rapidità, permettendo loro di impattare immediatamente sul campo di battaglia quando entrano in gioco. Mentre Fervor è una scelta solida per i mazzi che cercano di applicare rapidamente pressione, un'alternativa potenzialmente migliore potrebbe essere il Martello di Purphoros, che non solo conferisce rapidità ma offre anche la possibilità di creare token Golem 3/3. Nel complesso, Fervor può sicuramente essere giocato nei mazzi che puntano a una strategia veloce e aggressiva, ma a seconda dell'archetipo specifico del mazzo, altre carte come il Martello di Purphoros potrebbero offrire maggiore versatilità e valore.
Rugole
01/07/2012
If an attacking creature loses haste, perhaps because Fervor leaves the battlefield after attackers have been declared, it won’t be removed from combat.
Dove comprare
![]() | Card Kingdom | 38 uni.
| € 4,30 | visita il negozio |
![]() | Ebay.com | visita il negozio | ||
![]() | Cardkingdom | visita il negozio | ||
![]() | Printing proxies | $ 0.75 | visita il negozio |
*Questo sito contiene link di affiliazione per i quali potremmo ricevere un compenso
Gruppo
avviso di prezzo ?
Avvisami quando arriva il prezzo
Storico dell'andamento dei prezzi

Storico dei prezzi
| Data | Prezzo minimo | Prezzo medio | Decks |
|---|---|---|---|
| 2024-09-03 | 4.49 EUR | 5.43 EUR | 2 |
| 2024-09-09 | 4.56 EUR | 5.37 EUR | 1 |
| 2024-09-16 | 4.06 EUR | 5.18 EUR | 7 |
| 2024-09-23 | 3.21 EUR | 5.04 EUR | 2 |
| 2024-09-30 | 4.00 EUR | 5.12 EUR | 1 |
| 2024-10-07 | 3.81 EUR | 5.08 EUR | 0 |
| 2024-10-14 | 3.80 EUR | 5.15 EUR | 2 |
| 2024-10-21 | 3.80 EUR | 5.20 EUR | 0 |
| 2024-10-28 | 3.80 EUR | 5.13 EUR | 0 |
| 2024-11-06 | 3.80 EUR | 5.04 EUR | 2 |
| 2024-11-11 | 3.80 EUR | 4.93 EUR | 2 |
| 2024-11-18 | 3.80 EUR | 4.88 EUR | 0 |
| 2024-11-25 | 3.80 EUR | 4.95 EUR | 1 |
| 2024-12-02 | 3.80 EUR | 5.10 EUR | 0 |
| 2024-12-09 | 3.80 EUR | 5.08 EUR | 1 |
| 2024-12-19 | 3.80 EUR | 5.08 EUR | 1 |
| 2024-12-23 | 3.80 EUR | 5.08 EUR | 1 |
| 2024-12-30 | 3.80 EUR | 5.08 EUR | 1 |
| 2025-01-01 | 3.80 EUR | 5.08 EUR | 1 |
| 2025-01-06 | 3.80 EUR | 5.08 EUR | 1 |
| 2025-01-13 | 3.80 EUR | 5.08 EUR | 2 |
| 2025-01-20 | 3.80 EUR | 5.08 EUR | 2 |
| 2025-01-27 | 3.80 EUR | 5.08 EUR | 2 |
| 2025-02-03 | 3.80 EUR | 5.08 EUR | 3 |
| 2025-02-10 | 4.44 EUR | 5.40 EUR | 0 |
| 2025-02-18 | 5.50 EUR | 5.94 EUR | 1 |
| 2025-04-27 | 6.60 EUR | 7.19 EUR | 0 |
| 2025-04-28 | 6.59 EUR | 7.18 EUR | 0 |
| 2025-05-06 | 6.58 EUR | 7.05 EUR | 1 |
| 2025-05-12 | 6.09 EUR | 6.91 EUR | 0 |
| 2025-05-19 | 5.93 EUR | 6.63 EUR | 2 |
| 2025-05-28 | 5.63 EUR | 6.39 EUR | 0 |
| 2025-06-03 | 5.35 EUR | 6.15 EUR | 2 |
| 2025-06-10 | 5.07 EUR | 6.00 EUR | 0 |
| 2025-06-17 | 5.02 EUR | 5.69 EUR | 2 |
| 2025-06-23 | 4.91 EUR | 5.57 EUR | 0 |
| 2025-07-01 | 4.77 EUR | 5.76 EUR | 2 |
| 2025-07-08 | 5.12 EUR | 5.37 EUR | 0 |
| 2025-07-15 | 5.98 EUR | 5.98 EUR | 1 |
| 2025-07-22 | 5.08 EUR | 5.70 EUR | 2 |
| 2025-07-29 | 8.22 EUR | 6.74 EUR | 1 |
| 2025-08-05 | 5.05 EUR | 6.43 EUR | 1 |
| 2025-08-12 | 5.84 EUR | 7.12 EUR | 1 |
| 2025-08-18 | 6.08 EUR | 7.22 EUR | 2 |
| 2025-08-25 | 5.30 EUR | 6.83 EUR | 1 |
| 2025-09-02 | 4.51 EUR | 6.70 EUR | 0 |
| 2025-09-09 | 4.71 EUR | 6.68 EUR | 0 |
| 2025-09-15 | 4.94 EUR | 6.53 EUR | 1 |
| 2025-09-23 | 5.29 EUR | 6.30 EUR | 1 |
| 2025-09-29 | 5.62 EUR | 6.21 EUR | 1 |
| 2025-10-06 | 5.75 EUR | 6.07 EUR | 0 |
| 2025-10-13 | 5.76 EUR | 6.00 EUR | 1 |
| 2025-10-20 | 5.30 EUR | 5.56 EUR | 0 |
| 2025-10-27 | 4.91 EUR | 5.38 EUR | 0 |
| 2025-11-03 | 4.90 EUR | 5.30 EUR | 1 |
| 2025-11-10 | 4.84 EUR | 5.19 EUR | 1 |
| 2025-11-18 | 4.63 EUR | 4.94 EUR | 0 |
| 2025-11-24 | 4.46 EUR | 5.00 EUR | 1 |
| 2025-12-03 | 3.98 EUR | 4.69 EUR | 0 |
| 2025-12-08 | 3.94 EUR | 4.67 EUR | 1 |
| 2025-12-15 | 3.62 EUR | 4.75 EUR | 0 |
| 2025-12-22 | 3.68 EUR | 4.76 EUR | 0 |
| 2025-12-29 | 3.67 EUR | 4.71 EUR | 0 |
| 2026-01-01 | 3.66 EUR | 4.40 EUR | 0 |
| 2026-01-05 | 3.58 EUR | 4.32 EUR | 0 |
| 2026-01-13 | 3.56 EUR | 4.32 EUR | 1 |
| 2026-01-20 | 3.09 EUR | 4.61 EUR | 0 |
| 2026-01-26 | 2.99 EUR | 4.69 EUR | 0 |
| 2026-02-02 | 3.48 EUR | 4.79 EUR | 1 |
| 2026-02-09 | 3.59 EUR | 4.67 EUR | 1 |
| 2026-02-16 | 3.89 EUR | 4.63 EUR | 0 |
| 2026-02-23 | 4.26 EUR | 4.59 EUR | 0 |
| 2026-03-02 | 4.29 EUR | 4.62 EUR | 1 |
| 2026-03-10 | 4.31 EUR | 4.65 EUR | 0 |
| 2026-03-16 | 3.96 EUR | 4.66 EUR | 1 |
| 2026-04-02 | 4.35 EUR | 4.46 EUR | 0 |
| 2026-04-07 | 4.57 EUR | 4.83 EUR | 0 |
| 2026-04-14 | 4.55 EUR | 4.86 EUR | 0 |
| 2026-04-23 | 4.11 EUR | 4.88 EUR | 0 |
| 2026-04-30 | 4.12 EUR | 4.85 EUR | 0 |
| 2026-05-05 | 3.89 EUR | 4.61 EUR | 0 |
| 2026-05-14 | 4.12 EUR | 4.52 EUR | 0 |
| 2026-05-20 | 4.15 EUR | 4.55 EUR | 0 |
| 2026-05-25 | 4.38 EUR | 4.65 EUR | 0 |
| 2026-06-01 | 4.18 EUR | 4.56 EUR | 0 |
| 2026-06-08 | 4.28 EUR | 4.59 EUR | 2 |
| 2026-06-15 | 3.93 EUR | 4.43 EUR | 0 |
| 2026-06-23 | 3.76 EUR | 4.30 EUR | 0 |
| 2026-06-29 | 3.43 EUR | 4.18 EUR | 0 |
| 2026-07-06 | 2.99 EUR | 3.82 EUR | 0 |
| 2026-07-13 | 2.95 EUR | 3.80 EUR | 0 |
| 2026-07-20 | 3.37 EUR | 3.99 EUR | 0 |
| 2026-07-27 | 3.37 EUR | 4.12 EUR | 1 |
| 2026-08-03 | 3.79 EUR | 4.27 EUR | 0 |
| 2026-08-10 | 4.25 EUR | 4.49 EUR | 0 |
| 2026-08-17 | 4.32 EUR | 4.59 EUR | 0 |
| 2026-08-24 | 4.27 EUR | 4.60 EUR | 0 |
| 2026-09-01 | 4.30 EUR | 4.84 EUR | 0 |
Domande frequenti su Ardore
Che tipo di carta è Ardore?
Ardore è Incantesimo carta inserita Magic: the Gathering MTG.
Qual è l'effetto della carta Ardore?
Le creature che controlli hanno rapidità. (Possono attaccare e {T} non appena entrano sotto il tuo controllo.)
Qual è il prezzo della carta Ardore?
Ardore attualmente inizia alle € 4,30. Visualizza i prezzi in tempo reale di più venditori nella sezione Dove acquistare sopra.
Qual è il set originale della carta Ardore?
Ardore è stato rilasciato per la prima volta nel set Weatherlight, illustrato da Franz Vohwinkel.
Qual è la legalità della carta Ardore?
La legalità dipende dal formato del torneo: Ardore può essere legale in alcuni formati e vietato o limitato in altri. Consulta la ripartizione completa per formato nella sezione Legalità sopra.
Quali sono le combo con Ardore?
Ardore c'è una chiave magnetica 7 combo nel nostro database dei combo, collegato dalla sezione Combo di questa pagina.
Quali carte sono simili a Ardore?
Carte simili a Ardore includere Tramutante Sfocato, Carro Goblin, Pellegrino Piromantico. Consulta l'elenco completo nella sezione Carte simili sopra.





Reazioni
0
0 Commenti
Diventa il primo a commentare